createdAt,value
2018-03-16T00:01:59.201Z,63.19
2018-03-16T00:04:27.534Z,63.20
2018-03-16T00:06:55.850Z,62.99
2018-03-16T00:09:24.185Z,63.10
2018-03-16T00:11:52.507Z,63.45
2018-03-16T00:14:20.895Z,62.94
2018-03-16T00:16:49.262Z,62.96
2018-03-16T00:19:17.618Z,63.27
2018-03-16T00:21:46.028Z,63.45
2018-03-16T00:24:14.407Z,63.43
2018-03-16T00:26:42.721Z,63.41
2018-03-16T00:29:11.033Z,63.38
2018-03-16T00:31:39.364Z,63.13
2018-03-16T00:34:07.690Z,63.27
2018-03-16T00:36:36.013Z,63.38
2018-03-16T00:39:03.668Z,63.20
2018-03-16T00:41:31.880Z,63.08
2018-03-16T00:44:00.251Z,63.15
2018-03-16T00:46:28.599Z,62.97
2018-03-16T00:48:56.939Z,63.10
2018-03-16T00:51:25.264Z,63.27
2018-03-16T00:53:53.597Z,63.52
2018-03-16T00:56:21.940Z,63.63
2018-03-16T00:58:50.283Z,63.79
2018-03-16T01:01:18.603Z,63.96
2018-03-16T01:03:46.926Z,64.91
2018-03-16T01:06:15.250Z,65.16
2018-03-16T01:08:43.573Z,65.18
2018-03-16T01:11:11.921Z,64.73
2018-03-16T01:13:40.268Z,65.57
2018-03-16T01:16:08.605Z,65.33
2018-03-16T01:18:36.934Z,65.50
2018-03-16T01:21:05.837Z,65.33
2018-03-16T01:23:34.174Z,65.52
2018-03-16T01:26:02.551Z,65.57
2018-03-16T01:28:30.884Z,65.66
2018-03-16T01:30:59.206Z,65.67
2018-03-16T01:33:27.573Z,65.73
2018-03-16T01:35:55.674Z,65.71
2018-03-16T01:38:23.999Z,65.50
2018-03-16T01:40:52.320Z,65.24
2018-03-16T01:43:20.642Z,65.21
2018-03-16T01:45:49.005Z,65.25
2018-03-16T01:48:17.344Z,65.10
2018-03-16T01:50:45.702Z,64.94
2018-03-16T01:53:17.297Z,65.09
2018-03-16T01:55:45.634Z,65.18
2018-03-16T01:58:13.968Z,65.34
2018-03-16T02:00:42.288Z,65.39
2018-03-16T02:03:10.629Z,65.42
2018-03-16T02:05:38.949Z,65.79
2018-03-16T02:08:07.308Z,65.53
2018-03-16T02:10:35.630Z,65.55
2018-03-16T02:13:03.948Z,65.59
2018-03-16T02:15:32.109Z,65.57
2018-03-16T02:18:00.445Z,65.47
2018-03-16T02:20:28.783Z,65.59
2018-03-16T02:22:57.141Z,66.03
2018-03-16T02:25:25.514Z,66.02
2018-03-16T02:27:53.827Z,66.06
2018-03-16T02:30:22.219Z,66.13
2018-03-16T02:32:50.556Z,66.31
2018-03-16T02:35:18.935Z,66.49
2018-03-16T02:37:47.262Z,66.36
2018-03-16T02:40:15.658Z,66.31
2018-03-16T02:42:43.990Z,66.30
2018-03-16T02:45:12.346Z,66.37
2018-03-16T02:47:40.699Z,66.37
2018-03-16T02:50:09.038Z,66.23
2018-03-16T02:52:37.380Z,65.99
2018-03-16T02:55:05.698Z,65.86
2018-03-16T02:57:34.067Z,65.82
2018-03-16T03:00:02.414Z,66.02
2018-03-16T03:02:30.793Z,66.04
2018-03-16T03:04:59.153Z,66.00
2018-03-16T03:07:27.539Z,65.75
2018-03-16T03:09:55.871Z,66.47
2018-03-16T03:12:24.203Z,66.97
2018-03-16T03:14:52.552Z,66.82
2018-03-16T03:17:20.888Z,66.73
2018-03-16T03:19:49.217Z,66.84
2018-03-16T03:22:18.770Z,66.62
2018-03-16T03:24:47.187Z,66.52
2018-03-16T03:27:15.720Z,66.70
2018-03-16T03:29:44.109Z,66.86
2018-03-16T03:32:12.424Z,66.60
2018-03-16T03:34:40.786Z,66.51
2018-03-16T03:37:09.212Z,66.46
2018-03-16T03:39:37.537Z,66.24
2018-03-16T03:42:05.894Z,66.32
2018-03-16T03:44:34.277Z,66.27
2018-03-16T03:47:02.699Z,66.10
2018-03-16T03:49:31.127Z,66.19
2018-03-16T03:51:59.507Z,66.22
2018-03-16T03:54:27.818Z,66.18
2018-03-16T03:56:56.150Z,65.91
2018-03-16T03:59:24.474Z,65.74
2018-03-16T04:01:52.803Z,65.34
2018-03-16T04:04:21.142Z,65.42
2018-03-16T04:06:49.474Z,64.97
2018-03-16T04:09:17.819Z,64.77
2018-03-16T04:11:46.134Z,64.74
2018-03-16T04:14:14.647Z,65.13
2018-03-16T04:16:43.045Z,65.13
2018-03-16T04:19:11.391Z,65.69
2018-03-16T04:21:39.730Z,65.79
2018-03-16T04:24:08.285Z,65.77
2018-03-16T04:26:36.634Z,65.72
2018-03-16T04:29:04.954Z,65.94
2018-03-16T04:31:33.284Z,65.98
2018-03-16T04:34:01.599Z,65.63
2018-03-16T04:36:29.984Z,65.31
2018-03-16T04:38:58.334Z,65.20
2018-03-16T04:41:26.719Z,65.18
2018-03-16T04:43:55.081Z,65.04
2018-03-16T04:46:23.443Z,65.89
2018-03-16T04:48:51.781Z,65.12
2018-03-16T04:51:20.205Z,64.87
2018-03-16T04:53:48.551Z,64.85
2018-03-16T04:56:16.922Z,64.82
2018-03-16T04:58:54.966Z,64.78
2018-03-16T05:01:23.284Z,64.54
2018-03-16T05:03:51.648Z,64.46
2018-03-16T05:06:20.034Z,64.15
2018-03-16T05:08:48.396Z,64.22
2018-03-16T05:11:16.746Z,63.73
2018-03-16T05:13:45.098Z,63.63
2018-03-16T05:16:13.418Z,63.89
2018-03-16T05:18:41.787Z,64.06
2018-03-16T05:21:10.130Z,63.92
2018-03-16T05:23:38.451Z,63.88
2018-03-16T05:26:06.821Z,63.82
2018-03-16T05:28:35.221Z,63.76
2018-03-16T05:31:03.560Z,63.94
2018-03-16T05:33:31.888Z,63.72
2018-03-16T05:36:00.249Z,63.47
2018-03-16T05:38:28.624Z,63.78
2018-03-16T05:41:09.654Z,63.36
2018-03-16T05:43:38.051Z,63.06
2018-03-16T05:46:06.397Z,62.92
2018-03-16T05:48:34.758Z,62.94
2018-03-16T05:51:03.166Z,62.42
2018-03-16T05:53:31.487Z,61.83
2018-03-16T05:55:59.899Z,61.53
2018-03-16T05:58:28.272Z,61.38
2018-03-16T06:00:56.745Z,62.77
2018-03-16T06:03:43.839Z,62.41
2018-03-16T06:06:12.903Z,61.78
2018-03-16T06:08:41.248Z,61.66
2018-03-16T06:11:09.658Z,61.38
2018-03-16T06:14:00.148Z,60.70
2018-03-16T06:16:28.475Z,60.23
2018-03-16T06:18:56.863Z,59.98
2018-03-16T06:21:25.298Z,59.62
2018-03-16T06:23:53.727Z,58.95
2018-03-16T06:26:22.124Z,58.71
2018-03-16T06:28:50.471Z,58.35
2018-03-16T06:31:18.846Z,58.19
2018-03-16T06:33:47.202Z,57.81
2018-03-16T06:36:15.526Z,57.30
2018-03-16T06:38:43.881Z,56.94
2018-03-16T06:41:13.025Z,57.17
2018-03-16T06:43:41.376Z,56.60
2018-03-16T06:46:09.782Z,55.60
2018-03-16T06:48:38.100Z,55.41
2018-03-16T06:51:06.421Z,55.23
2018-03-16T06:53:34.821Z,55.72
2018-03-16T06:56:03.207Z,54.61
2018-03-16T06:58:31.571Z,55.34
2018-03-16T07:00:59.987Z,55.59
2018-03-16T07:03:28.498Z,54.90
2018-03-16T07:05:56.837Z,54.46
2018-03-16T07:08:25.243Z,54.29
2018-03-16T07:10:53.642Z,53.84
2018-03-16T07:13:21.975Z,53.97
2018-03-16T07:15:50.294Z,53.97
2018-03-16T07:18:18.615Z,54.13
2018-03-16T07:20:46.972Z,54.52
2018-03-16T07:23:15.380Z,55.20
2018-03-16T07:25:43.727Z,55.57
2018-03-16T07:28:12.063Z,55.56
2018-03-16T07:30:40.439Z,55.82
2018-03-16T07:33:08.865Z,55.92
2018-03-16T07:35:37.301Z,56.43
2018-03-16T07:38:05.625Z,56.61
2018-03-16T07:40:34.008Z,56.85
2018-03-16T07:43:02.474Z,57.06
2018-03-16T07:45:36.425Z,56.55
2018-03-16T07:48:05.598Z,56.18
2018-03-16T07:50:33.959Z,56.22
2018-03-16T07:53:02.309Z,56.56
2018-03-16T07:55:30.674Z,57.02
2018-03-16T07:57:59.013Z,56.40
2018-03-16T08:00:27.425Z,56.76
2018-03-16T08:02:55.775Z,56.45
2018-03-16T08:05:24.187Z,56.98
2018-03-16T08:07:52.586Z,57.33
2018-03-16T08:10:20.934Z,56.69
2018-03-16T08:12:49.268Z,56.20
2018-03-16T08:15:17.607Z,56.41
2018-03-16T08:17:46.201Z,56.75
2018-03-16T08:20:14.591Z,57.84
2018-03-16T08:22:43.040Z,58.39
2018-03-16T08:25:11.371Z,59.92
2018-03-16T08:27:39.730Z,61.10
2018-03-16T08:30:08.098Z,61.86
2018-03-16T08:32:36.468Z,62.62
2018-03-16T08:35:04.835Z,62.01
2018-03-16T08:37:33.169Z,62.41
2018-03-16T08:40:01.514Z,62.41
2018-03-16T08:42:29.885Z,62.61
2018-03-16T08:44:58.259Z,62.46
2018-03-16T08:47:26.777Z,62.46
2018-03-16T08:49:55.116Z,61.51
2018-03-16T08:52:23.471Z,61.12
2018-03-16T08:54:51.834Z,60.39
2018-03-16T08:57:20.166Z,60.43
2018-03-16T08:59:48.525Z,60.73
2018-03-16T09:02:16.930Z,61.10
2018-03-16T09:04:45.293Z,61.06
2018-03-16T09:07:13.645Z,60.35
2018-03-16T09:09:41.995Z,61.46
2018-03-16T09:12:10.325Z,61.42
2018-03-16T09:14:39.520Z,62.90
2018-03-16T09:17:07.878Z,62.54
2018-03-16T09:19:36.274Z,62.23
2018-03-16T09:22:04.723Z,62.40
2018-03-16T09:24:33.176Z,63.09
2018-03-16T09:27:01.540Z,62.57
2018-03-16T09:29:29.897Z,62.14
2018-03-16T09:31:58.245Z,61.29
2018-03-16T09:34:26.682Z,61.57
2018-03-16T09:36:55.031Z,61.70
2018-03-16T09:39:23.413Z,59.66
2018-03-16T09:41:51.791Z,60.11
2018-03-16T09:44:20.167Z,60.36
2018-03-16T09:46:48.546Z,59.87
2018-03-16T09:49:16.928Z,60.96
2018-03-16T09:51:45.254Z,60.69
2018-03-16T17:03:38.196Z,59.13
2018-03-16T17:09:21.213Z,58.79
2018-03-16T17:14:42.779Z,59.87
2018-03-16T17:17:11.149Z,61.02
2018-03-16T17:19:39.492Z,61.15
2018-03-16T17:22:07.922Z,60.57
2018-03-16T17:24:36.313Z,60.84
2018-03-16T17:27:04.674Z,60.46
2018-03-16T17:29:33.037Z,60.48
2018-03-16T17:32:01.375Z,59.55
2018-03-16T17:34:29.715Z,59.02
2018-03-16T17:36:57.919Z,59.28
2018-03-16T17:39:26.283Z,59.54
2018-03-16T17:41:55.085Z,59.57
2018-03-16T17:44:23.424Z,59.64
2018-03-16T17:46:51.778Z,59.60
2018-03-16T17:49:20.134Z,59.71
2018-03-16T17:51:48.501Z,59.71
2018-03-16T17:54:16.842Z,59.65
2018-03-16T17:56:45.170Z,60.01
2018-03-16T17:59:13.505Z,59.88
2018-03-16T18:01:41.863Z,59.93
2018-03-16T18:04:10.196Z,60.15
2018-03-16T18:06:38.563Z,60.41
2018-03-16T18:09:06.898Z,60.69
2018-03-16T18:11:35.252Z,59.81
2018-03-16T18:14:03.399Z,59.75
2018-03-16T18:16:31.735Z,59.83
2018-03-16T18:19:00.085Z,60.10
2018-03-16T18:21:28.457Z,60.46
2018-03-16T18:23:56.830Z,60.17
2018-03-16T18:26:25.149Z,60.18
2018-03-16T18:28:53.462Z,60.61
2018-03-16T18:31:21.792Z,60.69
2018-03-16T18:33:50.229Z,61.32
2018-03-16T18:36:18.591Z,61.64
2018-03-16T18:38:46.972Z,62.04
2018-03-16T18:41:15.347Z,61.70
2018-03-16T18:43:43.679Z,61.78
2018-03-16T18:46:12.018Z,60.76
2018-03-16T18:48:40.358Z,60.69
2018-03-16T18:51:08.767Z,60.92
2018-03-16T18:53:37.206Z,61.42
2018-03-16T18:56:05.551Z,61.24
2018-03-16T18:58:33.905Z,60.92
2018-03-16T19:01:02.241Z,60.70
2018-03-16T19:03:30.584Z,60.70
2018-03-16T19:05:58.980Z,60.63
2018-03-16T19:08:27.362Z,60.12
2018-03-16T19:10:56.643Z,59.51
2018-03-16T19:13:24.976Z,60.40
2018-03-16T19:15:53.378Z,60.66
2018-03-16T19:18:21.755Z,60.52
2018-03-16T19:20:50.109Z,59.96
2018-03-16T19:23:18.497Z,58.93
2018-03-16T19:25:46.905Z,59.50
2018-03-16T19:28:15.235Z,59.24
2018-03-16T19:30:43.612Z,58.92
2018-03-16T19:33:11.950Z,59.36
2018-03-16T19:35:40.308Z,59.60
2018-03-16T19:38:08.666Z,59.72
2018-03-16T19:40:37.058Z,59.67
2018-03-16T19:43:05.453Z,59.61
2018-03-16T19:45:33.800Z,60.06
2018-03-16T19:48:02.151Z,60.10
2018-03-16T19:50:30.586Z,59.72
2018-03-16T19:52:58.984Z,59.95
2018-03-16T19:55:27.176Z,60.14
2018-03-16T19:57:55.361Z,59.83
2018-03-16T20:00:24.090Z,59.60
2018-03-16T20:02:52.458Z,60.01
2018-03-16T20:05:20.812Z,60.23
2018-03-16T20:07:49.164Z,60.08
2018-03-16T20:10:17.501Z,59.79
2018-03-16T20:12:45.897Z,59.38
2018-03-16T20:15:14.253Z,59.75
2018-03-16T20:17:50.080Z,59.79
2018-03-16T20:20:18.968Z,59.84
2018-03-16T20:22:47.402Z,59.70
2018-03-16T20:25:15.740Z,59.08
2018-03-16T20:27:43.896Z,59.17
2018-03-16T20:30:12.239Z,59.54
2018-03-16T20:32:40.590Z,59.27
2018-03-16T20:35:08.956Z,59.00
2018-03-16T20:37:37.317Z,58.95
2018-03-16T20:40:05.701Z,59.16
2018-03-16T20:42:34.065Z,59.91
2018-03-16T20:45:04.041Z,60.31
2018-03-16T20:47:32.387Z,60.24
2018-03-16T20:50:00.729Z,60.35
2018-03-16T20:52:29.099Z,60.48
2018-03-16T20:54:57.458Z,60.79
2018-03-16T20:57:25.831Z,61.04
2018-03-16T20:59:54.180Z,60.90
2018-03-16T21:02:22.526Z,60.68
2018-03-16T21:04:50.845Z,60.92
2018-03-16T21:07:19.184Z,61.20
2018-03-16T21:09:47.531Z,61.22
2018-03-16T21:12:15.896Z,61.23
2018-03-16T21:14:44.431Z,61.60
2018-03-16T21:17:12.770Z,61.83
2018-03-16T21:19:41.105Z,61.58
2018-03-16T21:22:09.462Z,61.68
2018-03-16T21:24:37.808Z,61.10
2018-03-16T21:27:06.169Z,60.58
2018-03-16T21:29:34.536Z,61.17
2018-03-16T21:32:02.838Z,61.61
2018-03-16T21:34:31.198Z,62.10
2018-03-16T21:36:59.537Z,61.33
2018-03-16T21:39:27.873Z,61.80
2018-03-16T21:41:56.201Z,61.05
2018-03-16T21:44:24.547Z,61.08
2018-03-16T21:46:52.881Z,61.10
2018-03-16T21:49:21.202Z,60.70
2018-03-16T21:51:49.588Z,61.18
2018-03-16T21:54:17.918Z,60.73
2018-03-16T21:56:46.443Z,60.68
2018-03-16T21:59:14.829Z,60.50
2018-03-16T22:01:43.169Z,61.34
2018-03-16T22:04:11.513Z,61.82
2018-03-16T22:06:39.840Z,62.00
2018-03-16T22:09:08.183Z,61.37
2018-03-16T22:11:36.507Z,60.96
2018-03-16T22:14:04.849Z,60.96
2018-03-16T22:16:33.191Z,60.69
2018-03-16T22:19:01.529Z,60.41
2018-03-16T22:21:29.855Z,60.40
2018-03-16T22:23:58.217Z,60.11
2018-03-16T22:26:26.541Z,59.93
2018-03-16T22:28:54.875Z,59.71
2018-03-16T22:31:23.221Z,59.49
2018-03-16T22:33:51.577Z,59.58
2018-03-16T22:36:19.904Z,59.64
2018-03-16T22:38:48.236Z,59.57
2018-03-16T22:41:16.562Z,59.50
2018-03-16T22:43:44.903Z,59.58
2018-03-16T22:46:13.262Z,59.67
2018-03-16T22:48:41.609Z,59.66
2018-03-16T22:51:09.935Z,59.60
2018-03-16T22:53:38.269Z,59.25
2018-03-16T22:56:06.591Z,59.48
2018-03-16T22:58:34.932Z,59.58
2018-03-16T23:01:03.296Z,59.92
2018-03-16T23:03:31.610Z,59.86
2018-03-16T23:05:59.945Z,59.91
2018-03-16T23:08:28.255Z,60.32
2018-03-16T23:10:56.687Z,60.52
2018-03-16T23:13:25.014Z,59.93
2018-03-16T23:15:53.333Z,60.26
2018-03-16T23:18:21.670Z,60.16
2018-03-16T23:20:50.009Z,59.70
2018-03-16T23:23:18.419Z,59.44
2018-03-16T23:25:46.848Z,59.43
2018-03-16T23:28:15.185Z,59.60
2018-03-16T23:30:43.525Z,59.42
2018-03-16T23:33:11.833Z,59.37
2018-03-16T23:35:40.190Z,59.57
2018-03-16T23:38:08.507Z,59.38
2018-03-16T23:40:36.833Z,59.34
2018-03-16T23:43:05.145Z,59.06
2018-03-16T23:45:33.482Z,59.03
2018-03-16T23:48:01.840Z,58.94
2018-03-16T23:50:30.168Z,58.95
2018-03-16T23:52:58.512Z,58.45
2018-03-16T23:55:26.873Z,58.19
2018-03-16T23:57:55.194Z,57.69
